Maumelle, Arkansas
Current Conditions -  °F | °C
As of 5:53 PM on Sunday 21 Dec 2014 (Local Time) from KLIT Reporting Station
Broken Clouds Broken Clouds  
Wind Chill: 50°   Ceiling: 9500
Heat Index: 50°   Visibility: 10mi
Dew Point: 37°   Wind: 7mph
Humidity: 61%   Direction: 130°SE
Pressure: 29.96"   Gusts: NA
Location:  34.86°N, 92.4°W
Report Text: KLIT 212353Z 13006KT 10SM BKN095 10/03 A2996 RMK AO2 SLP148 T01000028 10128 20100 56016
Loading
Personal Weather Stations






























Interactive Weather Map New forecast layout! Learn more

10-Day Weather Forecast

Advertisements
Track Severe Weather on mobile